createdAt,value
2022-10-12T00:01:49.420Z,101929.59
2022-10-12T00:04:16.119Z,101923.63
2022-10-12T00:06:42.661Z,101931.38
2022-10-12T00:09:09.601Z,101927.13
2022-10-12T00:11:36.216Z,101930.09
2022-10-12T00:14:02.844Z,101934.63
2022-10-12T00:16:32.082Z,101939.72
2022-10-12T00:18:58.713Z,101922.03
2022-10-12T00:21:26.304Z,101927.28
2022-10-12T00:23:56.018Z,101929.38
2022-10-12T00:26:23.217Z,101933.88
2022-10-12T00:28:55.243Z,101940.59
2022-10-12T00:31:21.916Z,101933.56
2022-10-12T00:33:48.651Z,101934.44
2022-10-12T00:36:20.065Z,101933.41
2022-10-12T00:38:47.745Z,101939.31
2022-10-12T00:41:15.993Z,101935.19
2022-10-12T00:43:43.771Z,101917.53
2022-10-12T00:46:33.391Z,101930.50
2022-10-12T00:49:06.863Z,101937.28
2022-10-12T00:51:33.740Z,101927.66
2022-10-12T00:54:06.323Z,101925.38
2022-10-12T00:56:38.431Z,101928.66
2022-10-12T00:59:09.700Z,101929.63
2022-10-12T01:01:36.664Z,101931.34
2022-10-12T01:04:04.121Z,101925.75
2022-10-12T01:06:31.623Z,101925.88
2022-10-12T01:08:58.723Z,101913.78
2022-10-12T01:11:25.389Z,101910.69
2022-10-12T01:13:51.989Z,101926.97
2022-10-12T01:16:24.721Z,101922.34
2022-10-12T01:19:06.529Z,101921.56
2022-10-12T01:21:41.262Z,101916.47
2022-10-12T01:24:34.459Z,101920.13
2022-10-12T01:27:18.559Z,101911.69
2022-10-12T01:30:05.195Z,101920.63
2022-10-12T01:32:56.477Z,101917.06
2022-10-12T01:35:35.161Z,101914.78
2022-10-12T01:38:32.229Z,101909.53
2022-10-12T01:41:20.178Z,101905.91
2022-10-12T01:43:47.448Z,101906.97
2022-10-12T01:46:17.231Z,101903.22
2022-10-12T01:48:46.840Z,101900.41
2022-10-12T01:51:17.251Z,101899.19
2022-10-12T01:54:09.215Z,101899.22
2022-10-12T01:56:45.092Z,101892.78
2022-10-12T01:59:42.159Z,101890.47
2022-10-12T02:02:27.173Z,101896.16
2022-10-12T02:05:02.441Z,101875.16
2022-10-12T02:07:42.547Z,101884.34
2022-10-12T02:10:16.718Z,101878.47
2022-10-12T02:12:46.004Z,101894.38
2022-10-12T02:15:15.629Z,101886.88
2022-10-12T02:17:45.922Z,101876.78
2022-10-12T02:20:15.691Z,101886.41
2022-10-12T02:22:46.622Z,101883.22
2022-10-12T02:25:16.927Z,101884.75
2022-10-12T02:27:47.934Z,101882.34
2022-10-12T02:30:14.537Z,101876.41
2022-10-12T02:32:53.180Z,101882.06
2022-10-12T02:35:41.692Z,101865.00
2022-10-12T02:38:17.399Z,101878.28
2022-10-12T02:40:58.501Z,101866.34
2022-10-12T02:43:33.158Z,101874.19
2022-10-12T02:46:01.292Z,101864.31
2022-10-12T02:48:29.281Z,101859.50
2022-10-12T02:50:58.306Z,101855.31
2022-10-12T02:53:27.474Z,101866.81
2022-10-12T02:56:02.895Z,101853.25
2022-10-12T02:58:29.581Z,101853.72
2022-10-12T03:00:56.144Z,101854.13
2022-10-12T03:03:22.855Z,101847.75
2022-10-12T03:05:49.658Z,101849.75
2022-10-12T03:08:16.196Z,101852.47
2022-10-12T03:10:42.995Z,101839.06
2022-10-12T03:13:09.563Z,101837.97
2022-10-12T03:15:36.128Z,101835.75
2022-10-12T03:18:02.805Z,101835.78
2022-10-12T03:20:29.529Z,101827.22
2022-10-12T03:22:56.180Z,101832.19
2022-10-12T03:25:22.755Z,101833.47
2022-10-12T03:27:49.430Z,101835.28
2022-10-12T03:30:16.358Z,101840.84
2022-10-12T03:32:42.872Z,101826.38
2022-10-12T03:35:10.140Z,101830.97
2022-10-12T03:37:37.061Z,101831.97
2022-10-12T03:40:04.557Z,101832.22
2022-10-12T03:42:31.181Z,101833.94
2022-10-12T03:44:57.745Z,101823.72
2022-10-12T03:47:24.262Z,101835.72
2022-10-12T03:49:50.779Z,101827.66
2022-10-12T03:52:17.324Z,101811.75
2022-10-12T03:54:43.916Z,101822.66
2022-10-12T03:57:10.533Z,101824.28
2022-10-12T03:59:37.040Z,101814.22
2022-10-12T04:02:03.658Z,101818.41
2022-10-12T04:04:30.180Z,101816.38
2022-10-12T04:06:56.774Z,101811.22
2022-10-12T04:09:23.419Z,101813.78
2022-10-12T04:11:50.019Z,101816.72
2022-10-12T04:14:16.534Z,101809.72
2022-10-12T04:16:43.087Z,101810.16
2022-10-12T04:19:13.532Z,101803.59
2022-10-12T04:21:40.540Z,101811.03
2022-10-12T04:24:07.579Z,101798.44
2022-10-12T04:26:34.308Z,101806.22
2022-10-12T04:29:00.840Z,101805.38
2022-10-12T04:31:27.331Z,101805.50
2022-10-12T04:33:56.871Z,101804.53
2022-10-12T04:36:24.000Z,101799.66
2022-10-12T04:38:50.726Z,101803.94
2022-10-12T04:41:17.322Z,101801.63
2022-10-12T04:43:43.924Z,101794.28
2022-10-12T04:46:10.665Z,101791.78
2022-10-12T04:48:37.482Z,101790.16
2022-10-12T04:51:05.249Z,101787.44
2022-10-12T04:53:32.088Z,101791.53
2022-10-12T04:56:03.559Z,101791.34
2022-10-12T04:58:30.487Z,101790.44
2022-10-12T05:00:57.216Z,101797.91
2022-10-12T05:03:24.092Z,101786.19
2022-10-12T05:05:50.818Z,101781.91
2022-10-12T05:08:17.484Z,101783.38
2022-10-12T05:10:44.336Z,101781.41
2022-10-12T05:13:10.899Z,101785.66
2022-10-12T05:15:37.472Z,101776.44
2022-10-12T05:18:04.200Z,101784.34
2022-10-12T05:20:30.954Z,101787.00
2022-10-12T05:22:58.471Z,101786.34
2022-10-12T05:25:25.246Z,101780.22
2022-10-12T05:27:51.930Z,101771.72
2022-10-12T05:30:18.573Z,101770.13
2022-10-12T05:32:45.173Z,101765.88
2022-10-12T05:35:11.748Z,101779.25
2022-10-12T05:37:38.613Z,101775.38
2022-10-12T05:40:06.029Z,101773.97
2022-10-12T05:42:32.873Z,101780.84
2022-10-12T05:44:59.471Z,101775.09
2022-10-12T05:47:26.202Z,101764.72
2022-10-12T05:49:52.897Z,101769.84
2022-10-12T05:52:19.585Z,101778.28
2022-10-12T05:54:46.250Z,101779.09
2022-10-12T05:57:14.936Z,101783.44
2022-10-12T05:59:42.457Z,101794.44
2022-10-12T06:02:14.176Z,101790.44
2022-10-12T06:04:40.923Z,101784.94
2022-10-12T06:07:07.930Z,101792.94
2022-10-12T06:09:35.374Z,101782.03
2022-10-12T06:12:01.997Z,101786.56
2022-10-12T06:14:28.596Z,101780.94
2022-10-12T06:16:55.111Z,101784.97
2022-10-12T06:19:22.097Z,101775.00
2022-10-12T06:21:48.726Z,101781.34
2022-10-12T06:24:15.376Z,101778.78
2022-10-12T06:26:41.956Z,101770.94
2022-10-12T06:29:08.609Z,101778.09
2022-10-12T06:31:35.605Z,101767.31
2022-10-12T06:34:02.235Z,101765.84
2022-10-12T06:36:28.798Z,101766.50
2022-10-12T06:38:55.503Z,101775.56
2022-10-12T06:41:22.133Z,101774.38
2022-10-12T06:43:48.824Z,101783.69
2022-10-12T06:46:15.985Z,101782.56
2022-10-12T06:48:42.884Z,101770.38
2022-10-12T06:51:09.504Z,101773.78
2022-10-12T06:53:36.678Z,101780.56
2022-10-12T06:56:10.263Z,101782.59
2022-10-12T06:58:37.547Z,101778.00
2022-10-12T07:01:10.384Z,101769.78
2022-10-12T07:03:37.359Z,101780.03
2022-10-12T07:06:12.177Z,101781.13
2022-10-12T07:08:39.811Z,101777.84
2022-10-12T07:11:09.437Z,101787.28
2022-10-12T07:13:36.211Z,101791.41
2022-10-12T07:16:03.399Z,101792.03
2022-10-12T07:18:30.262Z,101783.97
2022-10-12T07:20:59.774Z,101786.63
2022-10-12T07:23:27.413Z,101786.94
2022-10-12T07:25:54.476Z,101789.88
2022-10-12T07:28:22.209Z,101786.78
2022-10-12T07:30:49.923Z,101777.88
2022-10-12T07:33:16.721Z,101777.38
2022-10-12T07:36:03.233Z,101774.59
2022-10-12T07:38:30.695Z,101780.69
2022-10-12T07:41:01.647Z,101774.88
2022-10-12T07:43:29.246Z,101773.78
2022-10-12T07:45:56.198Z,101777.00
2022-10-12T07:48:23.341Z,101775.19
2022-10-12T07:50:50.094Z,101766.66
2022-10-12T07:53:16.679Z,101761.22
2022-10-12T07:55:43.305Z,101763.59
2022-10-12T07:58:10.000Z,101763.72
2022-10-12T08:00:37.655Z,101767.44
2022-10-12T08:03:04.724Z,101771.06
2022-10-12T08:05:31.777Z,101767.19
2022-10-12T08:08:00.180Z,101769.25
2022-10-12T08:10:27.112Z,101758.19
2022-10-12T08:12:53.878Z,101777.50
2022-10-12T08:15:21.471Z,101765.28
2022-10-12T08:17:48.531Z,101765.63
2022-10-12T08:20:15.487Z,101764.31
2022-10-12T08:22:42.273Z,101779.59
2022-10-12T08:25:09.230Z,101774.91
2022-10-12T08:27:36.358Z,101770.16
2022-10-12T08:30:05.034Z,101763.63
2022-10-12T08:32:32.859Z,101772.47
2022-10-12T08:34:59.489Z,101768.25
2022-10-12T08:37:26.294Z,101775.31
2022-10-12T08:39:53.042Z,101753.69
2022-10-12T08:42:45.571Z,101763.13
2022-10-12T08:45:30.474Z,101758.53
2022-10-12T08:48:15.153Z,101758.69
2022-10-12T08:51:02.190Z,101763.09
2022-10-12T08:53:36.269Z,101746.97
2022-10-12T08:56:03.136Z,101762.63
2022-10-12T08:58:33.506Z,101748.78
2022-10-12T09:01:44.749Z,101742.13
2022-10-12T09:04:31.351Z,101739.69
2022-10-12T09:07:29.276Z,101753.00
2022-10-12T09:10:33.491Z,101747.41
2022-10-12T09:13:38.260Z,101750.66
2022-10-12T09:16:25.331Z,101750.84
2022-10-12T09:18:57.825Z,101748.28
2022-10-12T09:21:27.575Z,101747.88
2022-10-12T09:23:56.981Z,101753.47
2022-10-12T09:26:33.633Z,101750.28
2022-10-12T09:29:00.769Z,101746.44
2022-10-12T09:31:33.585Z,101750.50
2022-10-12T09:34:04.761Z,101757.94
2022-10-12T09:36:35.530Z,101755.03
2022-10-12T09:39:12.133Z,101745.72
2022-10-12T09:41:44.608Z,101744.69
2022-10-12T09:44:35.056Z,101745.91
2022-10-12T09:47:29.235Z,101743.56
2022-10-12T09:49:58.898Z,101746.31
2022-10-12T09:52:42.565Z,101741.63
2022-10-12T09:55:15.655Z,101745.03
2022-10-12T09:57:51.836Z,101743.25
2022-10-12T10:00:24.715Z,101742.41
2022-10-12T10:02:52.378Z,101740.19
2022-10-12T10:05:36.936Z,101742.78
2022-10-12T10:08:21.665Z,101730.09
2022-10-12T10:10:56.599Z,101730.34
2022-10-12T10:13:29.768Z,101708.59
2022-10-12T10:16:17.248Z,101720.97
2022-10-12T10:18:54.860Z,101730.13
2022-10-12T10:21:33.886Z,101713.88
2022-10-12T10:24:07.282Z,101705.34
2022-10-12T10:26:56.667Z,101707.13
2022-10-12T10:29:23.152Z,101712.50
2022-10-12T10:32:11.343Z,101707.53
2022-10-12T10:34:40.818Z,101711.34
2022-10-12T10:37:13.526Z,101700.59
2022-10-12T10:39:48.030Z,101704.53
2022-10-12T10:42:21.027Z,101701.88
2022-10-12T10:45:02.468Z,101691.56
2022-10-12T10:47:32.212Z,101698.78
2022-10-12T10:50:01.395Z,101707.34
2022-10-12T10:52:37.005Z,101702.44
2022-10-12T10:55:25.723Z,101706.03
2022-10-12T10:58:28.257Z,101712.78
2022-10-12T11:00:58.371Z,101704.41
2022-10-12T11:03:51.488Z,101710.91
2022-10-12T11:06:49.225Z,101711.03
2022-10-12T11:09:29.873Z,101714.53
2022-10-12T11:12:05.499Z,101711.19
2022-10-12T11:14:40.336Z,101699.09
2022-10-12T11:17:17.144Z,101695.38
2022-10-12T11:19:51.785Z,101693.63
2022-10-12T11:22:29.441Z,101681.81
2022-10-12T11:25:05.577Z,101679.31
2022-10-12T11:27:36.405Z,101679.31
2022-10-12T11:30:12.442Z,101669.06
2022-10-12T11:32:43.389Z,101672.44
2022-10-12T11:35:16.517Z,101676.97
2022-10-12T11:37:54.562Z,101669.19
2022-10-12T11:41:00.183Z,101672.91
2022-10-12T11:43:24.301Z,101673.78
2022-10-12T11:45:55.390Z,101665.00
2022-10-12T11:48:51.598Z,101663.28
2022-10-12T11:51:18.220Z,101655.56
2022-10-12T11:54:01.981Z,101662.81
2022-10-12T11:56:28.467Z,101659.38
2022-10-12T11:59:02.150Z,101655.91
2022-10-12T12:01:46.401Z,101647.22
2022-10-12T12:04:41.749Z,101633.94
2022-10-12T12:07:46.522Z,101638.47
2022-10-12T12:10:25.414Z,101651.59
2022-10-12T12:13:13.362Z,101644.59
2022-10-12T12:16:16.542Z,101622.78
2022-10-12T12:19:12.989Z,101621.91
2022-10-12T12:22:17.316Z,101624.47
2022-10-12T12:25:05.568Z,101622.72
2022-10-12T12:27:40.839Z,101616.63
2022-10-12T12:30:19.726Z,101614.88
2022-10-12T12:32:49.793Z,101614.91
2022-10-12T12:35:26.494Z,101613.97
2022-10-12T12:38:25.013Z,101598.22
2022-10-12T12:40:59.023Z,101603.44
2022-10-12T12:43:28.658Z,101599.03
2022-10-12T12:46:05.425Z,101600.69
2022-10-12T12:48:44.750Z,101590.06
2022-10-12T12:51:19.616Z,101590.16
2022-10-12T12:53:52.571Z,101590.13
2022-10-12T12:56:37.861Z,101593.59
2022-10-12T12:59:22.782Z,101589.06
2022-10-12T13:02:16.949Z,101593.38
2022-10-12T13:04:55.662Z,101597.75
2022-10-12T13:07:47.352Z,101595.16
2022-10-12T13:10:30.272Z,101595.94
2022-10-12T13:12:59.843Z,101589.72
2022-10-12T13:15:49.533Z,101589.81
2022-10-12T13:18:45.805Z,101587.06
2022-10-12T13:21:17.815Z,101579.28
2022-10-12T13:23:47.999Z,101579.31
2022-10-12T13:26:19.099Z,101572.28
2022-10-12T13:28:48.532Z,101571.28
2022-10-12T13:31:15.017Z,101576.53
2022-10-12T13:34:11.743Z,101567.91
2022-10-12T13:36:57.546Z,101570.59
2022-10-12T13:39:24.194Z,101567.97
2022-10-12T13:41:54.706Z,101553.97
2022-10-12T13:44:34.382Z,101565.41
2022-10-12T13:47:09.466Z,101552.38
2022-10-12T13:49:43.175Z,101561.03
2022-10-12T13:52:12.728Z,101550.63
2022-10-12T13:54:47.529Z,101543.69
2022-10-12T13:57:39.946Z,101542.75
2022-10-12T14:00:16.116Z,101534.97
2022-10-12T14:02:53.293Z,101532.38
2022-10-12T14:05:22.821Z,101522.69
2022-10-12T14:07:51.424Z,101522.69
2022-10-12T14:10:44.563Z,101524.47
2022-10-12T14:13:15.739Z,101513.13
2022-10-12T14:15:42.629Z,101514.00
2022-10-12T14:18:44.794Z,101510.44
2022-10-12T14:21:26.701Z,101517.47
2022-10-12T14:23:57.034Z,101504.31
2022-10-12T14:26:26.596Z,101520.09
2022-10-12T14:28:54.239Z,101509.56
2022-10-12T14:31:48.639Z,101498.25
2022-10-12T14:34:27.385Z,101502.56
2022-10-12T14:37:16.867Z,101495.53
2022-10-12T14:39:44.341Z,101500.72
2022-10-12T14:42:21.889Z,101497.94
2022-10-12T14:44:49.486Z,101492.69
2022-10-12T14:47:34.726Z,101486.44
2022-10-12T14:50:07.872Z,101481.84
2022-10-12T14:52:44.463Z,101473.66
2022-10-12T14:55:26.171Z,101475.28
2022-10-12T14:57:53.506Z,101478.19
2022-10-12T15:00:29.003Z,101472.03
2022-10-12T15:02:55.574Z,101472.16
2022-10-12T15:05:23.921Z,101474.16
2022-10-12T15:07:51.776Z,101476.97
2022-10-12T15:10:21.415Z,101467.47
2022-10-12T15:12:48.556Z,101475.34
2022-10-12T15:15:29.258Z,101459.63
2022-10-12T15:17:56.771Z,101458.72
2022-10-12T15:20:23.472Z,101457.75
2022-10-12T15:22:50.102Z,101448.16
2022-10-12T15:25:21.550Z,101455.09
2022-10-12T15:27:48.419Z,101447.19
2022-10-12T15:30:15.771Z,101452.38
2022-10-12T15:32:42.961Z,101445.09
2022-10-12T15:35:29.705Z,101437.97
2022-10-12T15:37:56.351Z,101437.06
2022-10-12T15:40:23.296Z,101444.19
2022-10-12T15:42:50.342Z,101449.81
2022-10-12T15:45:29.212Z,101440.31
2022-10-12T15:47:55.858Z,101407.97
2022-10-12T15:50:26.163Z,101436.06
2022-10-12T15:52:53.758Z,101422.09
2022-10-12T15:55:24.501Z,101430.84
2022-10-12T15:57:52.068Z,101430.00
2022-10-12T16:00:23.625Z,101438.75
2022-10-12T16:02:50.379Z,101428.22
2022-10-12T16:05:33.559Z,101439.59
2022-10-12T16:08:01.655Z,101441.31
2022-10-12T16:10:34.505Z,101436.88
2022-10-12T16:13:01.317Z,101423.69
2022-10-12T16:15:31.057Z,101422.75
2022-10-12T16:17:59.447Z,101417.50
2022-10-12T16:20:28.781Z,101418.34
2022-10-12T16:22:55.837Z,101416.59
2022-10-12T16:25:24.416Z,101417.31
2022-10-12T16:27:53.273Z,101412.88
2022-10-12T16:30:20.819Z,101407.63
2022-10-12T16:32:47.521Z,101405.72
2022-10-12T16:35:15.417Z,101403.84
2022-10-12T16:37:42.084Z,101409.88
2022-10-12T16:40:10.399Z,101414.13
2022-10-12T16:42:37.306Z,101419.31
2022-10-12T16:45:04.382Z,101426.09
2022-10-12T16:47:31.035Z,101424.41
2022-10-12T16:49:57.770Z,101422.53
2022-10-12T16:52:25.553Z,101415.34
2022-10-12T16:54:53.432Z,101419.69
2022-10-12T16:57:20.233Z,101418.78
2022-10-12T16:59:48.312Z,101420.47
2022-10-12T17:02:17.053Z,101431.81
2022-10-12T17:04:44.236Z,101429.22
2022-10-12T17:07:10.930Z,101424.94
2022-10-12T17:09:37.441Z,101425.53
2022-10-12T17:12:04.522Z,101428.78
2022-10-12T17:14:31.297Z,101440.00
2022-10-12T17:16:57.843Z,101442.66
2022-10-12T17:19:32.592Z,101444.56
2022-10-12T17:22:01.610Z,101457.63
2022-10-12T17:24:30.317Z,101448.84
2022-10-12T17:26:57.719Z,101449.75
2022-10-12T17:29:26.955Z,101452.09
2022-10-12T17:31:54.969Z,101456.44
2022-10-12T17:34:33.746Z,101448.56
2022-10-12T17:37:01.997Z,101456.16
2022-10-12T17:39:31.731Z,101449.41
2022-10-12T17:41:58.480Z,101436.19
2022-10-12T17:44:25.695Z,101435.31
2022-10-12T17:46:53.979Z,101445.75
2022-10-12T17:49:24.984Z,101436.22
2022-10-12T17:51:51.911Z,101432.78
2022-10-12T17:54:20.272Z,101423.03
2022-10-12T17:56:46.982Z,101426.59
2022-10-12T17:59:16.303Z,101439.56
2022-10-12T18:01:43.015Z,101436.97
2022-10-12T18:04:11.380Z,101433.72
2022-10-12T18:06:38.705Z,101451.00
2022-10-12T18:09:06.331Z,101455.84
2022-10-12T18:11:34.140Z,101464.53
2022-10-12T18:14:02.216Z,101473.22
2022-10-12T18:16:31.898Z,101474.84
2022-10-12T18:19:01.066Z,101471.28
2022-10-12T18:21:29.879Z,101469.78
2022-10-12T18:23:56.914Z,101462.94
2022-10-12T18:26:23.504Z,101462.84
2022-10-12T18:28:51.476Z,101470.03
2022-10-12T18:31:23.619Z,101468.25
2022-10-12T18:33:51.198Z,101470.00
2022-10-12T18:36:18.537Z,101472.44
2022-10-12T18:38:45.234Z,101466.50
2022-10-12T18:41:15.560Z,101458.50
2022-10-12T18:43:42.528Z,101451.47
2022-10-12T18:46:11.591Z,101449.75
2022-10-12T18:48:38.218Z,101457.56
2022-10-12T18:51:22.304Z,101454.88
2022-10-12T18:53:49.347Z,101461.66
2022-10-12T18:56:17.182Z,101454.72
2022-10-12T18:58:43.885Z,101452.97
2022-10-12T19:01:19.562Z,101447.84
2022-10-12T19:03:46.962Z,101450.44
2022-10-12T19:06:19.107Z,101442.47
2022-10-12T19:08:47.958Z,101430.69
2022-10-12T19:11:17.525Z,101443.00
2022-10-12T19:13:50.739Z,101441.13
2022-10-12T19:16:17.924Z,101429.44
2022-10-12T19:18:44.536Z,101429.59
2022-10-12T19:21:17.304Z,101425.03
2022-10-12T19:23:45.135Z,101441.47
2022-10-12T19:26:14.892Z,101427.44
2022-10-12T19:28:41.959Z,101426.66
2022-10-12T19:31:18.918Z,101432.88
2022-10-12T19:33:46.226Z,101433.72
2022-10-12T19:36:15.143Z,101431.91
2022-10-12T19:38:42.267Z,101424.41
2022-10-12T19:41:09.678Z,101438.34
2022-10-12T19:43:36.993Z,101433.44
2022-10-12T19:46:09.013Z,101433.56
2022-10-12T19:48:37.323Z,101422.97
2022-10-12T19:51:07.096Z,101422.66
2022-10-12T19:53:33.856Z,101423.41
2022-10-12T19:56:06.185Z,101417.31
2022-10-12T19:58:33.041Z,101409.50
2022-10-12T20:01:08.474Z,101422.31
2022-10-12T20:03:35.831Z,101415.03
2022-10-12T20:06:06.072Z,101419.38
2022-10-12T20:08:33.078Z,101420.22
2022-10-12T20:10:59.876Z,101416.19
2022-10-12T20:13:26.465Z,101431.69
2022-10-12T20:15:54.329Z,101417.06
2022-10-12T20:18:21.711Z,101419.75
2022-10-12T20:20:48.973Z,101414.38
2022-10-12T20:23:16.468Z,101408.16
2022-10-12T20:25:54.440Z,101409.50
2022-10-12T20:28:21.962Z,101418.41
2022-10-12T20:30:49.204Z,101406.97
2022-10-12T20:33:16.029Z,101408.75
2022-10-12T20:35:47.879Z,101408.72
2022-10-12T20:38:15.098Z,101407.09
2022-10-12T20:40:41.711Z,101411.63
2022-10-12T20:43:08.344Z,101399.59
2022-10-12T20:45:35.843Z,101403.53
2022-10-12T20:48:02.620Z,101396.34
2022-10-12T20:50:29.348Z,101414.59
2022-10-12T20:52:55.968Z,101399.03
2022-10-12T20:55:23.278Z,101396.41
2022-10-12T20:57:49.840Z,101401.09
2022-10-12T21:00:16.568Z,101394.31
2022-10-12T21:02:43.277Z,101390.19
2022-10-12T21:05:10.062Z,101372.53
2022-10-12T21:07:36.593Z,101396.16
2022-10-12T21:10:03.599Z,101398.09
2022-10-12T21:12:30.266Z,101395.56
2022-10-12T21:14:56.914Z,101402.16
2022-10-12T21:17:23.501Z,101409.94
2022-10-12T21:19:51.745Z,101393.47
2022-10-12T21:22:18.809Z,101417.66
2022-10-12T21:24:45.756Z,101410.63
2022-10-12T21:27:12.468Z,101408.81
2022-10-12T21:29:39.076Z,101402.13
2022-10-12T21:32:05.671Z,101398.72
2022-10-12T21:34:32.296Z,101406.75
2022-10-12T21:36:58.976Z,101393.19
2022-10-12T21:39:25.860Z,101386.78
2022-10-12T21:41:52.445Z,101399.91
2022-10-12T21:44:19.116Z,101388.66
2022-10-12T21:46:45.832Z,101399.88
2022-10-12T21:49:12.595Z,101395.72
2022-10-12T21:51:39.266Z,101395.81
2022-10-12T21:54:06.709Z,101401.00
2022-10-12T21:56:35.381Z,101407.97
2022-10-12T21:59:03.838Z,101402.41
2022-10-12T22:01:36.167Z,101390.25
2022-10-12T22:04:06.830Z,101397.06
2022-10-12T22:06:34.373Z,101392.66
2022-10-12T22:09:11.711Z,101376.00
2022-10-12T22:11:38.604Z,101386.38
2022-10-12T22:14:09.179Z,101385.75
2022-10-12T22:16:36.732Z,101389.06
2022-10-12T22:19:06.532Z,101384.44
2022-10-12T22:21:34.343Z,101382.84
2022-10-12T22:24:02.444Z,101376.00
2022-10-12T22:26:29.659Z,101378.91
2022-10-12T22:28:57.841Z,101371.69
2022-10-12T22:31:24.832Z,101376.09
2022-10-12T22:33:52.386Z,101360.16
2022-10-12T22:36:19.196Z,101363.72
2022-10-12T22:38:46.433Z,101370.75
2022-10-12T22:41:16.022Z,101381.22
2022-10-12T22:43:46.774Z,101376.78
2022-10-12T22:46:13.643Z,101369.88
2022-10-12T22:48:40.203Z,101373.28
2022-10-12T22:51:08.189Z,101375.81
2022-10-12T22:53:35.686Z,101382.69
2022-10-12T22:56:16.647Z,101374.00
2022-10-12T22:58:43.379Z,101373.19
2022-10-12T23:01:17.522Z,101370.44
2022-10-12T23:03:45.456Z,101369.50
2022-10-12T23:06:14.465Z,101364.81
2022-10-12T23:08:41.616Z,101359.56
2022-10-12T23:11:11.266Z,101360.41
2022-10-12T23:13:38.880Z,101347.19
2022-10-12T23:16:08.321Z,101342.88
2022-10-12T23:18:34.857Z,101348.88
2022-10-12T23:21:09.910Z,101352.19
2022-10-12T23:23:38.660Z,101355.72
2022-10-12T23:26:10.505Z,101347.97
2022-10-12T23:28:37.515Z,101352.19
2022-10-12T23:31:13.502Z,101353.06
2022-10-12T23:33:40.814Z,101346.81
2022-10-12T23:36:10.547Z,101344.16
2022-10-12T23:38:37.886Z,101354.03
2022-10-12T23:41:05.388Z,101342.72
2022-10-12T23:43:32.489Z,101350.22
2022-10-12T23:46:01.882Z,101344.81
2022-10-12T23:48:28.637Z,101350.09
2022-10-12T23:50:55.883Z,101349.34
2022-10-12T23:53:23.914Z,101357.59
2022-10-12T23:55:51.490Z,101357.06
2022-10-12T23:58:19.020Z,101357.19
